createdAt,value
2018-03-07T00:00:45.215Z,86.40
2018-03-07T00:03:12.719Z,86.50
2018-03-07T00:05:40.223Z,86.60
2018-03-07T00:08:08.504Z,85.70
2018-03-07T00:10:36.783Z,85.80
2018-03-07T00:13:05.063Z,86.20
2018-03-07T00:15:32.563Z,86.10
2018-03-07T00:18:00.059Z,86.30
2018-03-07T00:20:28.338Z,86.60
2018-03-07T00:22:56.607Z,86.60
2018-03-07T00:25:24.895Z,87.60
2018-03-07T00:27:53.177Z,87.30
2018-03-07T00:30:21.460Z,87.70
2018-03-07T00:32:48.986Z,87.70
2018-03-07T00:35:16.488Z,88.40
2018-03-07T00:37:43.996Z,89.50
2018-03-07T00:40:11.613Z,88.90
2018-03-07T00:42:39.122Z,89.00
2018-03-07T00:45:06.635Z,89.00
2018-03-07T00:47:34.138Z,89.00
2018-03-07T00:50:01.663Z,89.00
2018-03-07T00:52:29.164Z,89.00
2018-03-07T00:54:57.431Z,89.10
2018-03-07T00:57:25.015Z,89.10
2018-03-07T00:59:53.283Z,89.40
2018-03-07T01:02:21.568Z,89.50
2018-03-07T01:04:49.851Z,89.50
2018-03-07T01:07:17.439Z,89.50
2018-03-07T01:09:44.947Z,89.40
2018-03-07T01:12:12.463Z,89.40
2018-03-07T01:14:39.959Z,89.30
2018-03-07T01:17:07.451Z,89.10
2018-03-07T01:19:34.976Z,88.80
2018-03-07T01:22:02.471Z,88.50
2018-03-07T01:24:30.008Z,88.30
2018-03-07T01:26:58.290Z,87.60
2018-03-07T01:29:26.542Z,87.70
2018-03-07T01:31:54.051Z,87.60
2018-03-07T01:34:21.847Z,87.50
2018-03-07T01:36:49.339Z,88.00
2018-03-07T01:39:17.609Z,88.60
2018-03-07T01:41:45.881Z,88.70
2018-03-07T01:44:13.403Z,88.60
2018-03-07T01:46:40.911Z,88.80
2018-03-07T01:49:09.167Z,88.50
2018-03-07T01:51:48.615Z,88.40
2018-03-07T01:54:16.135Z,88.30
2018-03-07T01:56:43.639Z,88.00
2018-03-07T01:59:11.907Z,91.30
2018-03-07T02:01:39.423Z,91.30
2018-03-07T02:04:06.923Z,92.40
2018-03-07T02:06:34.435Z,92.80
2018-03-07T02:09:01.949Z,92.70
2018-03-07T02:11:30.239Z,92.30
2018-03-07T02:13:58.519Z,92.30
2018-03-07T02:16:26.803Z,92.40
2018-03-07T02:18:54.351Z,92.40
2018-03-07T02:21:22.633Z,92.60
2018-03-07T02:23:50.148Z,92.60
2018-03-07T02:26:17.651Z,92.50
2018-03-07T02:28:45.152Z,92.30
2018-03-07T02:31:12.681Z,92.10
2018-03-07T02:33:40.195Z,92.50
2018-03-07T02:49:33.913Z,95.00
2018-03-07T02:52:01.432Z,95.00
2018-03-07T02:54:29.700Z,94.80
2018-03-07T02:56:57.983Z,94.10
2018-03-07T02:59:26.255Z,93.70
2018-03-07T03:01:54.532Z,93.40
2018-03-07T03:04:22.806Z,93.10
2018-03-07T03:06:50.376Z,93.00
2018-03-07T03:09:18.636Z,92.60
2018-03-07T03:11:46.138Z,92.60
2018-03-07T03:14:13.673Z,92.30
2018-03-07T03:16:41.939Z,91.90
2018-03-07T03:19:10.199Z,91.80
2018-03-07T03:21:38.495Z,91.60
2018-03-07T03:24:06.787Z,91.50
2018-03-07T03:26:34.307Z,91.40
2018-03-07T03:29:01.821Z,91.40
2018-03-07T03:31:29.349Z,91.40
2018-03-07T03:33:57.630Z,91.50
2018-03-07T03:36:25.903Z,91.50
2018-03-07T03:38:54.172Z,91.60
2018-03-07T03:41:22.440Z,91.70
2018-03-07T03:43:49.936Z,91.60
2018-03-07T03:46:17.438Z,91.80
2018-03-07T03:48:44.934Z,93.40
2018-03-07T03:51:13.214Z,94.60
2018-03-07T03:53:41.495Z,95.40
2018-03-07T03:56:09.791Z,96.00
2018-03-07T03:58:37.330Z,96.00
2018-03-07T04:01:05.591Z,95.80
2018-03-07T04:03:33.851Z,96.10
2018-03-07T04:06:01.374Z,96.10
2018-03-07T04:08:28.911Z,95.90
2018-03-07T04:10:56.406Z,95.70
2018-03-07T04:13:23.898Z,95.10
2018-03-07T04:15:52.172Z,94.00
2018-03-07T04:18:19.695Z,94.00
2018-03-07T04:20:47.231Z,93.40
2018-03-07T04:23:14.722Z,92.90
2018-03-07T04:25:42.231Z,92.20
2018-03-07T04:28:09.739Z,92.00
2018-03-07T04:30:37.243Z,91.90
2018-03-07T04:33:05.495Z,91.60
2018-03-07T04:35:32.995Z,91.60
2018-03-07T04:38:00.492Z,91.60
2018-03-07T04:40:28.117Z,91.30
2018-03-07T04:42:55.619Z,91.20
2018-03-07T04:45:23.114Z,91.00
2018-03-07T04:47:50.623Z,91.00
2018-03-07T04:50:18.148Z,91.00
2018-03-07T04:52:45.648Z,90.90
2018-03-07T04:55:13.150Z,90.80
2018-03-07T04:57:41.410Z,90.60
2018-03-07T05:00:09.695Z,90.60
2018-03-07T05:02:38.003Z,90.50
2018-03-07T05:05:06.251Z,90.50
2018-03-07T05:07:34.535Z,90.50
2018-03-07T05:10:02.031Z,90.50
2018-03-07T05:12:29.526Z,90.40
2018-03-07T05:14:57.795Z,90.50
2018-03-07T05:17:25.287Z,90.40
2018-03-07T05:19:52.790Z,90.40
2018-03-07T05:22:20.295Z,90.20
2018-03-07T05:24:48.567Z,90.10
2018-03-07T05:27:16.847Z,89.90
2018-03-07T05:29:45.127Z,89.70
2018-03-07T05:32:13.395Z,89.50
2018-03-07T05:34:41.662Z,89.60
2018-03-07T05:37:09.940Z,89.70
2018-03-07T05:39:38.222Z,89.70
2018-03-07T05:42:06.494Z,89.80
2018-03-07T05:44:34.779Z,90.00
2018-03-07T05:47:03.048Z,90.00
2018-03-07T05:49:31.319Z,90.00
2018-03-07T05:51:59.581Z,90.00
2018-03-07T05:54:27.079Z,90.00
2018-03-07T05:56:54.623Z,89.80
2018-03-07T05:59:22.892Z,89.60
2018-03-07T06:01:51.166Z,89.50
2018-03-07T06:04:19.431Z,89.50
2018-03-07T06:06:46.932Z,89.50
2018-03-07T06:09:14.442Z,89.40
2018-03-07T06:11:41.955Z,89.40
2018-03-07T06:14:09.451Z,89.40
2018-03-07T06:16:36.956Z,89.30
2018-03-07T06:19:04.459Z,89.40
2018-03-07T06:21:31.964Z,89.50
2018-03-07T06:24:00.334Z,90.00
2018-03-07T06:26:28.606Z,90.00
2018-03-07T06:28:56.875Z,90.00
2018-03-07T06:31:24.397Z,90.00
2018-03-07T06:33:51.907Z,90.20
2018-03-07T06:36:20.171Z,90.20
2018-03-07T06:38:47.668Z,90.20
2018-03-07T06:41:15.191Z,90.40
2018-03-07T06:43:43.476Z,90.30
2018-03-07T06:46:11.743Z,90.30
2018-03-07T06:48:40.169Z,90.70
2018-03-07T06:51:07.692Z,90.30
2018-03-07T06:53:35.978Z,90.60
2018-03-07T06:56:03.486Z,90.50
2018-03-07T06:58:30.985Z,90.60
2018-03-07T07:00:59.267Z,90.70
2018-03-07T07:03:27.535Z,90.70
2018-03-07T07:05:55.799Z,90.80
2018-03-07T07:08:23.311Z,90.70
2018-03-07T07:10:50.827Z,91.10
2018-03-07T07:13:19.094Z,90.80
2018-03-07T07:15:46.588Z,90.80
2018-03-07T07:18:14.087Z,90.90
2018-03-07T07:20:41.604Z,91.00
2018-03-07T07:23:09.111Z,91.00
2018-03-07T07:25:36.615Z,91.30
2018-03-07T07:28:04.131Z,91.30
2018-03-07T07:30:31.647Z,91.40
2018-03-07T07:32:59.155Z,91.60
2018-03-07T07:35:26.684Z,91.60
2018-03-07T07:37:54.199Z,91.80
2018-03-07T07:40:22.548Z,91.90
2018-03-07T07:42:50.058Z,91.90
2018-03-07T07:45:17.559Z,91.90
2018-03-07T07:47:46.578Z,91.60
2018-03-07T07:50:14.870Z,91.50
2018-03-07T07:52:42.371Z,91.50
2018-03-07T07:55:09.920Z,91.40
2018-03-07T07:57:37.466Z,91.30
2018-03-07T08:00:05.695Z,92.50
2018-03-07T08:02:33.196Z,92.50
2018-03-07T08:05:00.756Z,93.20
2018-03-07T08:07:28.284Z,92.60
2018-03-07T08:09:56.548Z,91.80
2018-03-07T08:12:24.071Z,91.70
2018-03-07T08:14:51.586Z,91.60
2018-03-07T08:17:19.887Z,91.70
2018-03-07T08:19:47.406Z,91.70
2018-03-07T08:22:15.691Z,91.60
2018-03-07T08:24:43.955Z,91.60
2018-03-07T08:27:12.239Z,91.30
2018-03-07T08:29:40.521Z,91.10
2018-03-07T08:32:08.783Z,90.90
2018-03-07T08:34:36.295Z,90.90
2018-03-07T08:37:03.795Z,90.70
2018-03-07T08:39:31.304Z,90.60
2018-03-07T08:41:58.803Z,90.20
2018-03-07T08:44:26.338Z,88.60
2018-03-07T08:46:53.984Z,88.20
2018-03-07T08:49:21.644Z,87.40
2018-03-07T08:51:49.185Z,86.70
2018-03-07T08:54:16.728Z,86.50
2018-03-07T08:56:45.068Z,85.60
2018-03-07T08:59:12.702Z,85.60
2018-03-07T09:01:40.238Z,85.80
2018-03-07T09:04:07.823Z,86.10
2018-03-07T09:06:35.357Z,86.10
2018-03-07T09:09:03.722Z,85.30
2018-03-07T09:11:32.143Z,84.80
2018-03-07T09:13:59.711Z,84.80
2018-03-07T09:16:27.276Z,84.60
2018-03-07T09:18:54.924Z,83.00
2018-03-07T09:21:22.680Z,82.10
2018-03-07T09:23:50.238Z,82.00
2018-03-07T09:26:17.906Z,82.00
2018-03-07T09:28:45.478Z,81.30
2018-03-07T09:31:13.091Z,81.30
2018-03-07T09:33:40.661Z,80.40
2018-03-07T09:36:09.074Z,77.90
2018-03-07T09:38:36.618Z,77.90
2018-03-07T09:41:04.172Z,76.90
2018-03-07T09:43:31.723Z,77.60
2018-03-07T09:46:00.103Z,77.60
2018-03-07T09:48:27.652Z,77.60
2018-03-07T09:50:56.045Z,76.90
2018-03-07T09:53:23.582Z,76.80
2018-03-07T09:55:51.941Z,74.10
2018-03-07T09:58:20.320Z,73.30
2018-03-07T10:00:47.859Z,73.20
2018-03-07T10:03:15.465Z,72.20
2018-03-07T10:05:43.858Z,70.90
2018-03-07T10:08:12.157Z,71.10
2018-03-07T10:10:39.815Z,71.10
2018-03-07T10:13:07.360Z,71.20
2018-03-07T10:15:34.924Z,71.80
2018-03-07T10:18:02.449Z,72.20
2018-03-07T10:20:30.063Z,71.70
2018-03-07T10:22:57.634Z,72.10
2018-03-07T10:25:25.195Z,71.70
2018-03-07T10:27:52.773Z,71.80
2018-03-07T10:30:20.361Z,71.50
2018-03-07T10:32:48.651Z,71.70
2018-03-07T10:35:17.055Z,71.80
2018-03-07T10:37:44.670Z,71.70
2018-03-07T10:40:12.986Z,71.00
2018-03-07T10:42:40.528Z,70.90
2018-03-07T10:45:08.116Z,72.00
2018-03-07T10:47:35.682Z,71.00
2018-03-07T10:50:03.228Z,71.70
2018-03-07T10:52:30.778Z,71.80
2018-03-07T10:54:58.323Z,71.70
2018-03-07T10:57:26.592Z,71.80
2018-03-07T10:59:54.902Z,71.10
2018-03-07T11:02:22.471Z,71.10
2018-03-07T11:04:50.032Z,70.80
2018-03-07T11:07:17.701Z,69.40
2018-03-07T11:09:45.278Z,67.80
2018-03-07T11:12:12.848Z,67.20
2018-03-07T11:14:40.509Z,67.00
2018-03-07T11:17:08.322Z,67.70
2018-03-07T11:19:35.879Z,65.80
2018-03-07T11:22:03.419Z,65.80
2018-03-07T11:24:31.752Z,66.20
2018-03-07T11:26:59.340Z,66.10
2018-03-07T11:29:27.674Z,65.70
2018-03-07T11:31:55.250Z,65.60
2018-03-07T11:34:22.889Z,65.80
2018-03-07T11:36:50.461Z,65.90
2018-03-07T11:39:18.034Z,65.90
2018-03-07T11:41:45.580Z,65.60
2018-03-07T11:44:13.148Z,66.20
2018-03-07T11:46:40.679Z,66.10
2018-03-07T11:49:08.233Z,65.40
2018-03-07T11:51:35.770Z,65.70
2018-03-07T11:54:04.081Z,66.00
2018-03-07T11:56:31.630Z,65.90
2018-03-07T11:58:59.160Z,65.10
2018-03-07T12:01:27.472Z,65.50
2018-03-07T12:03:55.009Z,65.40
2018-03-07T12:06:23.319Z,65.20
2018-03-07T12:08:50.856Z,65.10
2018-03-07T12:11:18.404Z,64.40
2018-03-07T12:13:45.985Z,62.90
2018-03-07T12:16:13.515Z,61.70
2018-03-07T12:18:41.838Z,61.20
2018-03-07T12:21:09.359Z,61.10
2018-03-07T12:23:36.903Z,60.20
2018-03-07T12:26:05.176Z,62.10
2018-03-07T12:28:33.496Z,62.90
2018-03-07T12:31:01.020Z,62.10
2018-03-07T12:33:29.320Z,62.60
2018-03-07T12:35:56.969Z,62.60
2018-03-07T12:38:25.281Z,62.80
2018-03-07T12:40:52.797Z,62.80
2018-03-07T12:43:21.072Z,62.50
2018-03-07T12:45:49.431Z,62.50
2018-03-07T12:48:17.727Z,62.10
2018-03-07T12:50:46.080Z,61.60
2018-03-07T12:53:13.584Z,61.60
2018-03-07T12:55:41.096Z,60.40
2018-03-07T12:58:08.663Z,60.10
2018-03-07T13:00:36.230Z,58.90
2018-03-07T13:03:03.945Z,58.80
2018-03-07T13:05:31.519Z,59.10
2018-03-07T13:07:59.155Z,58.60
2018-03-07T13:10:26.729Z,58.30
2018-03-07T13:12:54.310Z,57.40
2018-03-07T13:15:21.863Z,56.40
2018-03-07T13:17:49.384Z,56.10
2018-03-07T13:20:16.886Z,55.50
2018-03-07T13:22:44.394Z,54.60
2018-03-07T13:25:11.923Z,54.10
2018-03-07T13:27:40.207Z,54.10
2018-03-07T13:30:07.736Z,54.10
2018-03-07T13:32:35.243Z,55.10
2018-03-07T13:35:03.544Z,54.80
2018-03-07T13:37:31.827Z,55.10
2018-03-07T13:39:59.351Z,55.00
2018-03-07T13:42:27.623Z,55.40
2018-03-07T13:44:55.935Z,55.90
2018-03-07T13:47:23.456Z,55.80
2018-03-07T13:49:51.774Z,57.90
2018-03-07T13:52:19.279Z,57.90
2018-03-07T13:54:46.800Z,58.50
2018-03-07T13:57:14.303Z,59.00
2018-03-07T13:59:42.588Z,60.20
2018-03-07T14:02:10.878Z,61.20
2018-03-07T14:04:38.387Z,61.10
2018-03-07T14:07:06.021Z,61.30
2018-03-07T14:09:33.526Z,61.20
2018-03-07T14:12:01.033Z,61.80
2018-03-07T14:14:28.540Z,61.90
2018-03-07T14:16:56.049Z,61.00
2018-03-07T14:19:23.559Z,60.20
2018-03-07T14:21:51.069Z,60.30
2018-03-07T14:24:18.611Z,59.80
2018-03-07T14:26:46.131Z,59.20
2018-03-07T14:29:13.635Z,57.40
2018-03-07T14:31:41.179Z,56.10
2018-03-07T14:34:08.716Z,56.60
2018-03-07T14:36:37.012Z,55.60
2018-03-07T14:39:05.299Z,53.30
2018-03-07T14:41:32.840Z,53.30
2018-03-07T14:44:01.115Z,47.00
2018-03-07T14:46:29.387Z,43.70
2018-03-07T14:48:57.049Z,43.70
2018-03-07T14:51:25.362Z,40.80
2018-03-07T14:53:52.863Z,40.70
2018-03-07T14:56:20.395Z,40.70
2018-03-07T14:58:47.956Z,40.40
2018-03-07T15:01:15.461Z,38.10
2018-03-07T15:03:43.007Z,37.50
2018-03-07T15:06:10.587Z,36.00
2018-03-07T15:08:38.900Z,34.70
2018-03-07T15:11:06.398Z,34.70
2018-03-07T15:13:33.918Z,34.00
2018-03-07T15:16:01.444Z,33.40
2018-03-07T15:18:29.761Z,35.40
2018-03-07T15:20:57.258Z,35.40
2018-03-07T15:23:25.806Z,34.30
2018-03-07T15:25:53.527Z,34.40
2018-03-07T15:28:21.791Z,33.80
2018-03-07T15:30:49.350Z,33.80
2018-03-07T15:33:16.883Z,35.20
2018-03-07T15:35:44.450Z,37.30
2018-03-07T15:38:12.011Z,39.70
2018-03-07T15:40:39.556Z,42.00
2018-03-07T15:43:07.072Z,43.50
2018-03-07T15:45:34.607Z,45.00
2018-03-07T15:48:02.105Z,46.40
2018-03-07T15:50:29.623Z,47.50
2018-03-07T15:52:57.135Z,48.60
2018-03-07T15:55:24.743Z,49.40
2018-03-07T15:57:52.249Z,50.90
2018-03-07T16:00:19.775Z,52.00
2018-03-07T16:02:48.082Z,53.90
2018-03-07T16:05:15.576Z,53.90
2018-03-07T16:07:43.096Z,54.60
2018-03-07T16:10:10.652Z,55.60
2018-03-07T16:12:38.218Z,56.20
2018-03-07T16:15:05.743Z,56.80
2018-03-07T16:17:34.062Z,57.80
2018-03-07T16:20:01.583Z,57.80
2018-03-07T16:22:29.859Z,58.50
2018-03-07T16:24:57.382Z,58.50
2018-03-07T16:27:24.957Z,59.20
2018-03-07T16:29:52.475Z,59.60
2018-03-07T16:32:20.020Z,61.20
2018-03-07T16:34:47.519Z,61.80
2018-03-07T16:37:15.015Z,62.00
2018-03-07T16:39:43.282Z,62.90
2018-03-07T16:42:11.543Z,63.60
2018-03-07T16:44:40.569Z,63.70
2018-03-07T16:47:08.067Z,63.70
2018-03-07T16:49:35.563Z,63.70
2018-03-07T16:52:03.827Z,63.90
2018-03-07T16:54:31.442Z,63.80
2018-03-07T16:56:59.222Z,63.70
2018-03-07T16:59:27.540Z,63.50
2018-03-07T17:01:55.816Z,63.70
2018-03-07T17:04:23.427Z,63.30
2018-03-07T17:06:50.927Z,63.90
2018-03-07T17:09:18.432Z,63.40
2018-03-07T17:11:46.060Z,64.20
2018-03-07T17:14:14.323Z,65.90
2018-03-07T17:16:41.937Z,65.70
2018-03-07T17:19:09.459Z,66.60
2018-03-07T17:21:37.742Z,70.00
2018-03-07T17:24:06.021Z,70.80
2018-03-07T17:26:34.287Z,71.30
2018-03-07T17:29:02.592Z,71.80
2018-03-07T17:31:30.095Z,71.80
2018-03-07T17:33:57.612Z,71.10
2018-03-07T17:36:25.147Z,70.00
2018-03-07T17:38:52.691Z,69.00
2018-03-07T17:41:20.212Z,68.80
2018-03-07T17:43:47.700Z,69.00
2018-03-07T17:46:15.191Z,69.20
2018-03-07T17:48:43.451Z,69.60
2018-03-07T17:51:11.735Z,70.20
2018-03-07T17:53:40.257Z,70.10
2018-03-07T17:56:07.843Z,70.10
2018-03-07T17:58:35.323Z,70.50
2018-03-07T18:01:03.612Z,73.90
2018-03-07T18:03:31.875Z,75.00
2018-03-07T18:05:59.370Z,75.00
2018-03-07T18:08:26.927Z,74.40
2018-03-07T18:10:54.435Z,73.50
2018-03-07T18:13:22.007Z,73.30
2018-03-07T18:15:49.599Z,73.30
2018-03-07T18:18:17.120Z,73.40
2018-03-07T18:20:44.630Z,75.70
2018-03-07T18:23:12.152Z,77.90
2018-03-07T18:25:40.423Z,78.60
2018-03-07T18:28:07.960Z,78.50
2018-03-07T18:30:35.495Z,78.60
2018-03-07T18:33:03.001Z,78.80
2018-03-07T18:35:30.511Z,78.50
2018-03-07T18:37:58.026Z,77.70
2018-03-07T18:40:26.315Z,76.10
2018-03-07T18:42:54.578Z,77.20
2018-03-07T18:45:22.860Z,80.20
2018-03-07T18:47:51.139Z,80.10
2018-03-07T18:50:19.408Z,79.80
2018-03-07T18:52:47.690Z,79.50
2018-03-07T18:55:15.966Z,79.30
2018-03-07T18:57:44.235Z,79.10
2018-03-07T19:00:12.496Z,78.90
2018-03-07T19:02:39.991Z,78.90
2018-03-07T19:05:07.491Z,78.60
2018-03-07T19:07:35.007Z,78.10
2018-03-07T19:10:02.512Z,77.80
2018-03-07T19:12:30.055Z,77.70
2018-03-07T19:14:57.548Z,77.70
2018-03-07T19:17:25.069Z,77.50
2018-03-07T19:19:52.566Z,77.40
2018-03-07T19:22:20.064Z,77.10
2018-03-07T19:24:47.579Z,76.70
2018-03-07T19:27:16.581Z,75.90
2018-03-07T19:29:44.077Z,75.90
2018-03-07T19:32:11.588Z,75.60
2018-03-07T19:34:40.608Z,75.50
2018-03-07T19:37:08.868Z,75.80
2018-03-07T19:39:36.368Z,75.70
2018-03-07T19:42:03.884Z,76.10
2018-03-07T19:44:32.902Z,76.20
2018-03-07T19:47:01.252Z,76.00
2018-03-07T19:49:28.800Z,76.10
2018-03-07T19:51:56.292Z,76.10
2018-03-07T19:54:24.639Z,76.10
2018-03-07T19:56:52.946Z,76.50
2018-03-07T19:59:20.480Z,76.60
2018-03-07T20:01:48.015Z,76.70
2018-03-07T20:04:15.579Z,76.80
2018-03-07T20:06:43.092Z,76.80
2018-03-07T20:09:10.640Z,77.00
2018-03-07T20:11:38.961Z,77.30
2018-03-07T20:14:06.550Z,77.30
2018-03-07T20:16:34.071Z,77.30
2018-03-07T20:19:01.565Z,77.40
2018-03-07T20:21:29.114Z,77.80
2018-03-07T20:23:56.638Z,77.90
2018-03-07T20:26:24.242Z,77.40
2018-03-07T20:28:51.761Z,77.70
2018-03-07T20:31:19.455Z,78.00
2018-03-07T20:33:47.020Z,80.50
2018-03-07T20:36:14.562Z,80.90
2018-03-07T20:38:42.111Z,80.90
2018-03-07T20:41:09.622Z,80.80
2018-03-07T20:43:37.953Z,80.60
2018-03-07T20:46:05.487Z,80.50
2018-03-07T20:48:33.000Z,80.60
2018-03-07T20:51:00.514Z,80.80
2018-03-07T20:53:28.062Z,80.60
2018-03-07T20:55:55.605Z,80.40
2018-03-07T20:58:23.944Z,80.30
2018-03-07T21:00:51.468Z,80.20
2018-03-07T21:03:18.992Z,80.50
2018-03-07T21:05:47.264Z,81.20
2018-03-07T21:08:15.558Z,82.90
2018-03-07T21:10:43.862Z,83.30
2018-03-07T21:13:11.356Z,83.30
2018-03-07T21:15:38.860Z,82.80
2018-03-07T21:18:06.395Z,83.30
2018-03-07T21:20:34.717Z,84.70
2018-03-07T21:23:02.376Z,84.70
2018-03-07T21:25:29.895Z,85.70
2018-03-07T21:27:58.234Z,88.20
2018-03-07T21:30:25.764Z,88.20
2018-03-07T21:32:53.372Z,88.80
2018-03-07T21:35:20.872Z,88.90
2018-03-07T21:37:48.460Z,88.60
2018-03-07T21:40:15.996Z,89.10
2018-03-07T21:42:43.567Z,89.90
2018-03-07T21:45:11.115Z,89.70
2018-03-07T21:47:38.656Z,90.20
2018-03-07T21:50:06.196Z,90.80
2018-03-07T21:52:33.751Z,90.80
2018-03-07T21:55:01.312Z,91.10
2018-03-07T21:57:28.828Z,91.40
2018-03-07T21:59:56.338Z,91.50
2018-03-07T22:02:23.906Z,91.30
2018-03-07T22:04:52.202Z,91.30
2018-03-07T22:07:19.767Z,91.20
2018-03-07T22:09:47.283Z,91.10
2018-03-07T22:12:14.779Z,91.10
2018-03-07T22:14:42.383Z,91.00
2018-03-07T22:17:09.878Z,91.40
2018-03-07T22:19:38.215Z,91.40
2018-03-07T22:22:05.711Z,91.40
2018-03-07T22:24:34.023Z,91.40
2018-03-07T22:27:01.580Z,91.40
2018-03-07T22:29:29.112Z,90.90
2018-03-07T22:31:57.391Z,90.90
2018-03-07T22:34:25.651Z,91.00
2018-03-07T22:36:53.150Z,91.00
2018-03-07T22:39:20.650Z,90.80
2018-03-07T22:41:48.143Z,90.80
2018-03-07T22:44:16.420Z,90.90
2018-03-07T22:46:44.695Z,90.80
2018-03-07T22:49:12.951Z,90.80
2018-03-07T22:51:40.459Z,90.70
2018-03-07T22:54:07.975Z,90.90
2018-03-07T22:56:35.491Z,90.80
2018-03-07T22:59:03.035Z,90.90
2018-03-07T23:01:30.547Z,90.50
2018-03-07T23:03:58.035Z,90.30
2018-03-07T23:06:25.586Z,90.60
2018-03-07T23:08:53.075Z,90.40
2018-03-07T23:11:20.576Z,90.20
2018-03-07T23:13:48.064Z,90.30
2018-03-07T23:16:16.320Z,90.60
2018-03-07T23:18:43.802Z,90.60
2018-03-07T23:21:11.303Z,91.00
2018-03-07T23:23:38.812Z,90.90
2018-03-07T23:26:07.083Z,90.70
2018-03-07T23:28:35.351Z,91.00
2018-03-07T23:31:03.612Z,91.10
2018-03-07T23:33:31.099Z,91.10
2018-03-07T23:35:59.379Z,90.90
2018-03-07T23:38:26.871Z,90.90
2018-03-07T23:40:54.359Z,90.90
2018-03-07T23:43:21.850Z,91.00
2018-03-07T23:45:50.111Z,91.10
2018-03-07T23:48:18.378Z,91.00
2018-03-07T23:50:45.881Z,91.00
2018-03-07T23:53:13.406Z,91.10
2018-03-07T23:55:41.677Z,91.00
2018-03-07T23:58:09.195Z,91.00
